createdAt,value
2023-02-06T00:00:09.561Z,103047.69
2023-02-06T00:02:38.189Z,103050.50
2023-02-06T00:05:39.167Z,103042.34
2023-02-06T00:08:07.704Z,103055.06
2023-02-06T00:10:35.747Z,103058.63
2023-02-06T00:13:02.609Z,103072.69
2023-02-06T00:15:29.356Z,103072.56
2023-02-06T00:17:56.140Z,103072.47
2023-02-06T00:20:22.930Z,103084.00
2023-02-06T00:22:49.661Z,103085.41
2023-02-06T00:25:16.510Z,103083.63
2023-02-06T00:27:43.463Z,103081.72
2023-02-06T00:30:10.679Z,103085.63
2023-02-06T00:32:38.013Z,103080.13
2023-02-06T00:35:06.980Z,103092.19
2023-02-06T00:37:37.205Z,103090.91
2023-02-06T00:40:08.151Z,103094.16
2023-02-06T00:42:35.232Z,103097.91
2023-02-06T00:45:01.965Z,103094.22
2023-02-06T00:47:28.745Z,103096.31
2023-02-06T00:49:55.506Z,103089.16
2023-02-06T00:52:22.312Z,103089.31
2023-02-06T00:54:49.035Z,103101.63
2023-02-06T00:57:15.807Z,103095.44
2023-02-06T00:59:42.575Z,103101.38
2023-02-06T01:02:09.428Z,103106.06
2023-02-06T01:04:36.429Z,103106.69
2023-02-06T01:07:03.341Z,103103.47
2023-02-06T01:09:31.155Z,103100.84
2023-02-06T01:11:57.961Z,103104.06
2023-02-06T01:14:25.946Z,103110.44
2023-02-06T01:16:52.784Z,103107.47
2023-02-06T01:19:19.491Z,103106.00
2023-02-06T01:21:47.009Z,103103.97
2023-02-06T01:24:13.869Z,103098.91
2023-02-06T01:26:40.880Z,103096.75
2023-02-06T01:29:07.602Z,103101.25
2023-02-06T01:31:34.834Z,103096.84
2023-02-06T01:34:04.006Z,103107.66
2023-02-06T01:36:30.817Z,103101.94
2023-02-06T01:38:57.512Z,103101.66
2023-02-06T01:41:24.402Z,103108.44
2023-02-06T01:44:12.933Z,103106.41
2023-02-06T01:46:42.540Z,103102.88
2023-02-06T01:49:14.761Z,103105.03
2023-02-06T01:51:42.097Z,103112.00
2023-02-06T01:54:10.261Z,103107.31
2023-02-06T01:56:48.511Z,103110.72
2023-02-06T01:59:16.134Z,103116.94
2023-02-06T02:01:43.293Z,103119.03
2023-02-06T02:04:16.401Z,103122.50
2023-02-06T02:06:45.964Z,103116.06
2023-02-06T02:09:14.372Z,103106.78
2023-02-06T02:11:43.223Z,103120.72
2023-02-06T02:14:14.583Z,103121.63
2023-02-06T02:17:00.898Z,103123.44
2023-02-06T02:19:58.519Z,103134.53
2023-02-06T02:22:28.402Z,103144.59
2023-02-06T02:25:40.165Z,103145.13
2023-02-06T02:28:18.815Z,103139.38
2023-02-06T02:31:10.825Z,103137.53
2023-02-06T02:33:47.575Z,103136.66
2023-02-06T02:36:46.021Z,103137.75
2023-02-06T02:39:18.663Z,103132.97
2023-02-06T02:41:55.551Z,103145.91
2023-02-06T02:44:47.523Z,103136.53
2023-02-06T02:47:17.685Z,103146.84
2023-02-06T02:49:46.467Z,103152.81
2023-02-06T02:52:14.044Z,103147.25
2023-02-06T02:54:40.806Z,103151.34
2023-02-06T02:57:23.097Z,103153.81
2023-02-06T02:59:51.766Z,103152.16
2023-02-06T03:02:28.943Z,103147.75
2023-02-06T03:05:01.478Z,103157.25
2023-02-06T03:07:40.853Z,103157.47
2023-02-06T03:10:11.314Z,103158.47
2023-02-06T03:12:57.249Z,103164.31
2023-02-06T03:15:31.125Z,103161.50
2023-02-06T03:18:24.052Z,103166.88
2023-02-06T03:20:52.228Z,103164.94
2023-02-06T03:23:31.860Z,103166.16
2023-02-06T03:26:02.166Z,103168.84
2023-02-06T03:28:34.776Z,103166.91
2023-02-06T03:31:06.779Z,103161.88
2023-02-06T03:33:43.607Z,103170.63
2023-02-06T03:36:17.120Z,103179.59
2023-02-06T03:38:49.681Z,103169.41
2023-02-06T03:41:18.605Z,103166.31
2023-02-06T03:43:49.410Z,103169.78
2023-02-06T03:46:17.985Z,103175.97
2023-02-06T03:48:49.659Z,103169.53
2023-02-06T03:51:21.537Z,103164.31
2023-02-06T03:53:52.994Z,103169.84
2023-02-06T03:56:35.329Z,103175.97
2023-02-06T03:59:02.290Z,103175.75
2023-02-06T04:01:29.153Z,103175.56
2023-02-06T04:03:57.176Z,103177.00
2023-02-06T04:06:24.215Z,103180.47
2023-02-06T04:08:51.558Z,103179.91
2023-02-06T04:11:18.275Z,103178.75
2023-02-06T04:13:45.128Z,103172.56
2023-02-06T04:16:11.868Z,103171.97
2023-02-06T04:18:38.610Z,103176.75
2023-02-06T04:21:06.930Z,103183.72
2023-02-06T04:23:34.039Z,103182.34
2023-02-06T04:26:00.812Z,103190.59
2023-02-06T04:28:27.670Z,103197.25
2023-02-06T04:30:54.454Z,103193.00
2023-02-06T04:33:21.396Z,103201.69
2023-02-06T04:35:48.922Z,103205.28
2023-02-06T04:38:15.998Z,103205.59
2023-02-06T04:40:43.086Z,103202.78
2023-02-06T04:43:09.997Z,103206.06
2023-02-06T04:45:37.280Z,103210.66
2023-02-06T04:48:04.225Z,103209.03
2023-02-06T04:50:32.011Z,103213.88
2023-02-06T04:52:59.144Z,103209.09
2023-02-06T04:55:25.859Z,103205.53
2023-02-06T04:57:52.616Z,103213.69
2023-02-06T05:00:19.389Z,103218.94
2023-02-06T05:02:46.290Z,103207.25
2023-02-06T05:05:13.199Z,103208.25
2023-02-06T05:07:40.226Z,103209.75
2023-02-06T05:10:09.340Z,103198.44
2023-02-06T05:12:36.555Z,103215.41
2023-02-06T05:15:03.666Z,103210.66
2023-02-06T05:17:30.423Z,103210.38
2023-02-06T05:19:58.425Z,103212.91
2023-02-06T05:22:26.048Z,103215.69
2023-02-06T05:24:52.773Z,103217.22
2023-02-06T05:27:19.627Z,103221.06
2023-02-06T05:29:46.448Z,103226.84
2023-02-06T05:32:13.244Z,103225.97
2023-02-06T05:34:39.965Z,103221.63
2023-02-06T05:37:06.761Z,103226.09
2023-02-06T05:39:33.450Z,103221.81
2023-02-06T05:42:00.283Z,103222.09
2023-02-06T05:44:27.233Z,103228.81
2023-02-06T05:46:54.417Z,103231.63
2023-02-06T05:49:21.266Z,103233.41
2023-02-06T05:51:48.132Z,103230.41
2023-02-06T05:54:17.056Z,103227.56
2023-02-06T05:56:44.400Z,103234.69
2023-02-06T05:59:11.458Z,103232.59
2023-02-06T06:01:38.247Z,103231.84
2023-02-06T06:04:05.276Z,103233.47
2023-02-06T06:06:32.143Z,103230.06
2023-02-06T06:09:01.332Z,103231.38
2023-02-06T06:11:29.915Z,103230.34
2023-02-06T06:13:56.639Z,103236.63
2023-02-06T06:16:23.636Z,103247.66
2023-02-06T06:18:50.432Z,103246.31
2023-02-06T06:21:17.384Z,103249.28
2023-02-06T06:23:44.201Z,103246.59
2023-02-06T06:26:11.040Z,103244.81
2023-02-06T06:28:38.856Z,103235.47
2023-02-06T06:31:08.970Z,103232.06
2023-02-06T06:33:35.889Z,103241.09
2023-02-06T06:36:02.650Z,103246.13
2023-02-06T06:38:29.503Z,103248.50
2023-02-06T06:40:56.257Z,103241.72
2023-02-06T06:43:23.106Z,103241.25
2023-02-06T06:45:49.865Z,103243.19
2023-02-06T06:48:16.701Z,103247.03
2023-02-06T06:50:43.670Z,103241.41
2023-02-06T06:53:10.665Z,103251.66
2023-02-06T06:55:37.807Z,103249.59
2023-02-06T06:58:04.874Z,103242.13
2023-02-06T07:00:31.656Z,103246.47
2023-02-06T07:02:58.460Z,103245.13
2023-02-06T07:05:25.222Z,103243.91
2023-02-06T07:07:52.230Z,103243.78
2023-02-06T07:10:19.229Z,103257.59
2023-02-06T07:12:45.965Z,103254.03
2023-02-06T07:15:12.686Z,103262.66
2023-02-06T07:17:39.921Z,103268.47
2023-02-06T07:20:07.088Z,103273.06
2023-02-06T07:22:33.886Z,103278.25
2023-02-06T07:25:00.607Z,103275.75
2023-02-06T07:27:27.464Z,103278.25
2023-02-06T07:29:54.282Z,103286.13
2023-02-06T07:32:21.428Z,103284.63
2023-02-06T07:34:48.314Z,103281.06
2023-02-06T07:37:15.146Z,103287.63
2023-02-06T07:39:41.877Z,103285.22
2023-02-06T07:42:08.777Z,103284.59
2023-02-06T07:44:58.591Z,103283.66
2023-02-06T07:47:25.611Z,103278.88
2023-02-06T07:49:52.312Z,103281.38
2023-02-06T07:52:20.307Z,103286.88
2023-02-06T07:54:47.031Z,103282.94
2023-02-06T07:57:13.896Z,103282.78
2023-02-06T07:59:40.843Z,103289.47
2023-02-06T08:02:10.326Z,103291.69
2023-02-06T08:04:37.165Z,103288.38
2023-02-06T08:07:05.510Z,103289.38
2023-02-06T08:09:33.130Z,103285.91
2023-02-06T08:11:59.895Z,103289.41
2023-02-06T08:14:27.085Z,103290.13
2023-02-06T08:16:54.419Z,103287.09
2023-02-06T08:19:21.471Z,103288.97
2023-02-06T08:21:51.594Z,103296.72
2023-02-06T08:24:21.671Z,103291.94
2023-02-06T08:26:48.395Z,103287.88
2023-02-06T08:29:15.230Z,103292.59
2023-02-06T08:31:43.150Z,103296.75
2023-02-06T08:34:12.495Z,103296.16
2023-02-06T08:36:39.476Z,103297.03
2023-02-06T08:39:06.520Z,103303.41
2023-02-06T08:41:38.910Z,103306.25
2023-02-06T08:44:11.664Z,103301.78
2023-02-06T08:46:39.901Z,103301.19
2023-02-06T08:49:17.834Z,103307.41
2023-02-06T08:51:45.566Z,103301.19
2023-02-06T08:54:15.950Z,103303.38
2023-02-06T08:56:43.081Z,103308.09
2023-02-06T08:59:11.463Z,103304.16
2023-02-06T09:01:38.932Z,103306.88
2023-02-06T09:04:08.466Z,103297.53
2023-02-06T09:06:37.102Z,103291.81
2023-02-06T09:09:04.692Z,103301.09
2023-02-06T09:11:31.951Z,103293.06
2023-02-06T09:14:00.852Z,103297.13
2023-02-06T09:16:29.542Z,103290.53
2023-02-06T09:19:01.436Z,103280.91
2023-02-06T09:21:31.018Z,103285.91
2023-02-06T09:24:01.945Z,103274.16
2023-02-06T09:26:31.651Z,103275.16
2023-02-06T09:29:00.134Z,103279.09
2023-02-06T09:31:30.773Z,103274.25
2023-02-06T09:34:00.338Z,103270.56
2023-02-06T09:36:30.420Z,103273.50
2023-02-06T09:38:58.318Z,103272.72
2023-02-06T09:41:45.482Z,103271.16
2023-02-06T09:44:40.710Z,103260.84
2023-02-06T09:47:31.303Z,103267.19
2023-02-06T09:50:02.912Z,103263.56
2023-02-06T09:52:29.733Z,103261.28
2023-02-06T09:55:18.438Z,103263.16
2023-02-06T09:57:51.298Z,103260.47
2023-02-06T10:00:46.277Z,103257.88
2023-02-06T10:04:13.103Z,103250.56
2023-02-06T10:06:59.880Z,103258.50
2023-02-06T10:09:39.505Z,103263.97
2023-02-06T10:12:31.887Z,103259.19
2023-02-06T10:15:36.770Z,103258.56
2023-02-06T10:18:06.700Z,103249.34
2023-02-06T10:20:38.638Z,103241.53
2023-02-06T10:23:23.668Z,103244.38
2023-02-06T10:26:01.715Z,103241.13
2023-02-06T10:28:35.403Z,103238.44
2023-02-06T10:31:20.895Z,103245.47
2023-02-06T10:33:53.113Z,103231.06
2023-02-06T10:36:25.425Z,103234.75
2023-02-06T10:39:26.572Z,103225.78
2023-02-06T10:42:35.861Z,103226.09
2023-02-06T10:45:19.928Z,103232.72
2023-02-06T10:48:29.398Z,103225.94
2023-02-06T10:51:17.454Z,103221.75
2023-02-06T10:53:53.390Z,103215.56
2023-02-06T10:56:28.922Z,103226.66
2023-02-06T10:59:33.145Z,103209.81
2023-02-06T11:02:06.061Z,103206.50
2023-02-06T11:04:51.117Z,103205.34
2023-02-06T11:07:26.340Z,103196.81
2023-02-06T11:09:55.775Z,103195.94
2023-02-06T11:12:25.429Z,103193.72
2023-02-06T11:14:54.801Z,103185.63
2023-02-06T11:17:26.582Z,103183.31
2023-02-06T11:20:21.855Z,103175.97
2023-02-06T11:22:53.157Z,103182.28
2023-02-06T11:25:31.513Z,103169.13
2023-02-06T11:28:01.671Z,103164.19
2023-02-06T11:30:35.792Z,103155.44
2023-02-06T11:33:08.974Z,103163.59
2023-02-06T11:35:47.586Z,103154.28
2023-02-06T11:38:20.356Z,103155.69
2023-02-06T11:41:16.519Z,103148.06
2023-02-06T11:43:43.720Z,103141.09
2023-02-06T11:46:20.375Z,103130.97
2023-02-06T11:48:56.834Z,103129.13
2023-02-06T11:51:26.032Z,103132.13
2023-02-06T11:54:01.822Z,103122.72
2023-02-06T11:56:30.258Z,103122.59
2023-02-06T11:59:07.588Z,103108.34
2023-02-06T12:01:40.824Z,103108.31
2023-02-06T12:04:23.519Z,103098.22
2023-02-06T12:06:59.383Z,103090.03
2023-02-06T12:09:26.754Z,103083.81
2023-02-06T12:12:26.360Z,103081.78
2023-02-06T12:14:58.399Z,103084.91
2023-02-06T12:17:31.424Z,103077.03
2023-02-06T12:20:20.720Z,103065.41
2023-02-06T12:23:06.376Z,103067.38
2023-02-06T12:25:40.080Z,103067.38
2023-02-06T12:28:16.330Z,103061.03
2023-02-06T12:30:56.008Z,103055.63
2023-02-06T12:34:11.477Z,103050.16
2023-02-06T12:36:53.333Z,103028.94
2023-02-06T12:39:23.854Z,103028.34
2023-02-06T12:42:27.157Z,103033.34
2023-02-06T12:45:11.770Z,103019.09
2023-02-06T12:47:49.848Z,103019.09
2023-02-06T12:50:39.980Z,103016.66
2023-02-06T12:53:26.386Z,103008.47
2023-02-06T12:56:01.197Z,102997.38
2023-02-06T12:58:47.915Z,102992.75
2023-02-06T13:01:45.667Z,102982.44
2023-02-06T13:04:23.644Z,102979.69
2023-02-06T13:07:07.396Z,102973.72
2023-02-06T13:09:46.981Z,102973.03
2023-02-06T13:12:23.729Z,102979.13
2023-02-06T13:15:00.863Z,102969.88
2023-02-06T13:17:39.993Z,102964.38
2023-02-06T13:20:13.880Z,102960.75
2023-02-06T13:22:57.661Z,102960.84
2023-02-06T13:25:32.548Z,102956.31
2023-02-06T13:28:20.490Z,102951.78
2023-02-06T13:30:59.006Z,102946.00
2023-02-06T13:33:37.746Z,102940.00
2023-02-06T13:36:15.865Z,102946.75
2023-02-06T13:38:43.830Z,102932.50
2023-02-06T13:41:19.972Z,102932.69
2023-02-06T13:43:56.993Z,102931.50
2023-02-06T13:46:37.347Z,102931.50
2023-02-06T13:49:26.088Z,102930.72
2023-02-06T13:52:06.282Z,102934.78
2023-02-06T13:54:54.861Z,102934.78
2023-02-06T13:57:42.751Z,102924.19
2023-02-06T14:00:30.867Z,102915.22
2023-02-06T14:03:13.425Z,102922.69
2023-02-06T14:05:52.933Z,102929.84
2023-02-06T14:08:51.699Z,102927.38
2023-02-06T14:11:59.119Z,102923.00
2023-02-06T14:14:34.699Z,102924.38
2023-02-06T14:17:04.146Z,102916.22
2023-02-06T14:19:37.768Z,102910.97
2023-02-06T14:22:16.257Z,102904.63
2023-02-06T14:25:04.306Z,102902.97
2023-02-06T14:28:04.263Z,102901.88
2023-02-06T14:30:33.796Z,102889.78
2023-02-06T14:33:25.369Z,102890.41
2023-02-06T14:36:07.594Z,102889.97
2023-02-06T14:38:47.721Z,102887.47
2023-02-06T14:41:16.411Z,102888.28
2023-02-06T14:43:46.051Z,102889.66
2023-02-06T14:46:17.152Z,102890.34
2023-02-06T14:48:46.683Z,102897.06
2023-02-06T14:51:28.720Z,102889.59
2023-02-06T14:54:01.833Z,102891.88
2023-02-06T14:56:33.053Z,102891.16
2023-02-06T14:59:18.272Z,102889.59
2023-02-06T15:01:50.577Z,102893.84
2023-02-06T15:04:21.966Z,102894.91
2023-02-06T15:06:59.509Z,102889.31
2023-02-06T15:09:30.743Z,102890.19
2023-02-06T15:12:00.669Z,102886.00
2023-02-06T15:14:30.473Z,102890.50
2023-02-06T15:16:59.759Z,102880.47
2023-02-06T15:19:35.706Z,102871.56
2023-02-06T15:22:10.963Z,102865.94
2023-02-06T15:25:01.606Z,102877.81
2023-02-06T15:27:33.863Z,102869.88
2023-02-06T15:30:02.619Z,102866.09
2023-02-06T15:32:37.875Z,102870.81
2023-02-06T15:35:19.684Z,102872.09
2023-02-06T15:37:46.602Z,102859.81
2023-02-06T15:40:36.026Z,102865.00
2023-02-06T15:43:04.120Z,102867.53
2023-02-06T15:45:35.850Z,102873.22
2023-02-06T15:48:13.195Z,102869.69
2023-02-06T15:50:54.257Z,102875.66
2023-02-06T15:53:29.719Z,102874.75
2023-02-06T15:55:56.831Z,102871.09
2023-02-06T15:58:25.101Z,102863.50
2023-02-06T16:00:57.356Z,102874.09
2023-02-06T16:03:27.394Z,102871.34
2023-02-06T16:05:56.477Z,102864.84
2023-02-06T16:08:32.115Z,102874.53
2023-02-06T16:11:04.829Z,102876.88
2023-02-06T16:13:32.954Z,102867.34
2023-02-06T16:16:32.221Z,102872.25
2023-02-06T16:18:59.364Z,102869.38
2023-02-06T16:21:29.942Z,102864.94
2023-02-06T16:24:00.235Z,102868.28
2023-02-06T16:26:30.976Z,102874.25
2023-02-06T16:29:09.736Z,102865.53
2023-02-06T16:31:42.468Z,102870.88
2023-02-06T16:34:29.186Z,102864.16
2023-02-06T16:36:56.156Z,102873.16
2023-02-06T16:39:25.743Z,102867.94
2023-02-06T16:41:53.650Z,102870.41
2023-02-06T16:44:20.951Z,102877.81
2023-02-06T16:46:48.115Z,102876.28
2023-02-06T16:49:22.327Z,102882.72
2023-02-06T16:51:52.796Z,102878.19
2023-02-06T16:54:25.528Z,102876.06
2023-02-06T16:56:54.661Z,102880.84
2023-02-06T16:59:21.553Z,102876.22
2023-02-06T17:01:48.826Z,102885.75
2023-02-06T17:04:16.052Z,102885.53
2023-02-06T17:06:42.888Z,102887.72
2023-02-06T17:09:13.146Z,102882.41
2023-02-06T17:11:41.112Z,102885.53
2023-02-06T17:14:11.439Z,102886.53
2023-02-06T17:16:39.549Z,102884.28
2023-02-06T17:19:06.678Z,102887.94
2023-02-06T17:21:33.986Z,102889.16
2023-02-06T17:24:00.966Z,102894.22
2023-02-06T17:26:28.146Z,102889.63
2023-02-06T17:28:55.223Z,102896.25
2023-02-06T17:31:22.751Z,102897.88
2023-02-06T17:33:49.787Z,102906.03
2023-02-06T17:36:29.665Z,102907.22
2023-02-06T17:39:00.735Z,102904.59
2023-02-06T17:41:28.253Z,102910.66
2023-02-06T17:43:57.194Z,102909.78
2023-02-06T17:46:24.219Z,102915.97
2023-02-06T17:48:51.532Z,102903.81
2023-02-06T17:51:18.571Z,102915.38
2023-02-06T17:53:45.536Z,102917.09
2023-02-06T17:56:13.206Z,102915.69
2023-02-06T17:58:41.991Z,102914.13
2023-02-06T18:01:30.854Z,102910.56
2023-02-06T18:04:02.170Z,102914.97
2023-02-06T18:06:41.116Z,102903.59
2023-02-06T18:09:09.950Z,102902.44
2023-02-06T18:11:50.996Z,102903.13
2023-02-06T18:14:18.385Z,102899.72
2023-02-06T18:19:55.653Z,102899.06
2023-02-06T18:22:43.800Z,102901.28
2023-02-06T18:25:24.099Z,102897.53
2023-02-06T18:27:54.462Z,102899.97
2023-02-06T18:30:25.715Z,102902.56
2023-02-06T18:32:53.160Z,102889.19
2023-02-06T18:35:20.407Z,102896.81
2023-02-06T18:37:47.569Z,102901.00
2023-02-06T18:40:14.299Z,102900.78
2023-02-06T18:42:56.924Z,102888.06
2023-02-06T18:45:26.297Z,102886.09
2023-02-06T18:47:53.095Z,102889.31
2023-02-06T18:50:22.053Z,102896.50
2023-02-06T18:52:49.913Z,102903.78
2023-02-06T18:55:17.002Z,102897.91
2023-02-06T18:57:43.821Z,102895.34
2023-02-06T19:00:13.815Z,102899.78
2023-02-06T19:02:41.365Z,102897.66
2023-02-06T19:05:08.599Z,102889.09
2023-02-06T19:07:35.711Z,102898.31
2023-02-06T19:10:05.670Z,102899.63
2023-02-06T19:12:32.632Z,102889.97
2023-02-06T19:14:59.831Z,102895.59
2023-02-06T19:17:27.805Z,102908.72
2023-02-06T19:19:54.996Z,102900.97
2023-02-06T19:22:40.472Z,102910.44
2023-02-06T19:25:12.059Z,102909.06
2023-02-06T19:27:40.444Z,102907.78
2023-02-06T19:30:08.494Z,102922.28
2023-02-06T19:32:36.415Z,102926.41
2023-02-06T19:35:04.224Z,102925.00
2023-02-06T19:37:38.409Z,102918.66
2023-02-06T19:40:06.071Z,102925.75
2023-02-06T19:42:33.018Z,102937.41
2023-02-06T19:45:00.165Z,102938.41
2023-02-06T19:47:27.272Z,102936.53
2023-02-06T19:49:54.800Z,102943.91
2023-02-06T19:52:21.973Z,102943.00
2023-02-06T19:54:55.540Z,102954.13
2023-02-06T19:57:22.681Z,102950.13
2023-02-06T19:59:49.519Z,102948.72
2023-02-06T20:02:16.811Z,102944.41
2023-02-06T20:04:45.379Z,102940.09
2023-02-06T20:07:12.603Z,102945.69
2023-02-06T20:09:43.684Z,102953.16
2023-02-06T20:12:12.717Z,102967.22
2023-02-06T20:14:42.866Z,102966.69
2023-02-06T20:17:10.015Z,102978.03
2023-02-06T20:19:37.141Z,102988.94
2023-02-06T20:22:04.927Z,102986.34
2023-02-06T20:24:33.373Z,102982.34
2023-02-06T20:27:02.966Z,102978.41
2023-02-06T20:29:35.720Z,102979.22
2023-02-06T20:32:04.754Z,102985.88
2023-02-06T20:34:32.146Z,102987.47
2023-02-06T20:36:59.702Z,102986.81
2023-02-06T20:39:27.581Z,102993.22
2023-02-06T20:41:54.971Z,102994.72
2023-02-06T20:44:22.160Z,102988.47
2023-02-06T20:46:49.503Z,102994.56
2023-02-06T20:49:22.654Z,102992.47
2023-02-06T20:51:51.620Z,103003.97
2023-02-06T20:54:20.343Z,103008.63
2023-02-06T20:56:48.055Z,103010.81
2023-02-06T20:59:16.599Z,103001.94
2023-02-06T21:01:44.392Z,103004.66
2023-02-06T21:04:13.346Z,103000.78
2023-02-06T21:06:41.412Z,103008.09
2023-02-06T21:09:11.687Z,103011.09
2023-02-06T21:11:44.616Z,103004.38
2023-02-06T21:14:16.156Z,103022.91
2023-02-06T21:16:44.068Z,103023.63
2023-02-06T21:19:13.310Z,103027.44
2023-02-06T21:21:41.040Z,103041.00
2023-02-06T21:24:08.877Z,103036.06
2023-02-06T21:27:06.774Z,103041.06
2023-02-06T21:29:33.924Z,103051.22
2023-02-06T21:32:13.267Z,103042.97
2023-02-06T21:34:42.097Z,103047.97
2023-02-06T21:37:09.116Z,103039.13
2023-02-06T21:39:38.935Z,103032.19
2023-02-06T21:42:06.329Z,103027.41
2023-02-06T21:44:34.312Z,103023.16
2023-02-06T21:47:01.439Z,103019.19
2023-02-06T21:49:28.369Z,103025.59
2023-02-06T21:51:58.589Z,103030.06
2023-02-06T21:54:26.867Z,103031.22
2023-02-06T21:56:56.804Z,103030.75
2023-02-06T21:59:24.484Z,103030.25
2023-02-06T22:01:51.677Z,103027.22
2023-02-06T22:04:18.932Z,103021.81
2023-02-06T22:06:48.128Z,103030.56
2023-02-06T22:09:21.075Z,103033.41
2023-02-06T22:11:48.263Z,103035.19
2023-02-06T22:14:25.205Z,103036.09
2023-02-06T22:16:52.348Z,103040.28
2023-02-06T22:19:19.486Z,103040.47
2023-02-06T22:21:46.749Z,103034.72
2023-02-06T22:24:40.761Z,103044.75
2023-02-06T22:27:18.612Z,103036.81
2023-02-06T22:29:45.626Z,103030.72
2023-02-06T22:32:12.310Z,103043.22
2023-02-06T22:34:39.207Z,103048.53
2023-02-06T22:37:06.231Z,103054.34
2023-02-06T22:39:33.237Z,103057.97
2023-02-06T22:42:03.125Z,103062.56
2023-02-06T22:44:30.053Z,103076.03
2023-02-06T22:46:56.856Z,103066.69
2023-02-06T22:49:24.652Z,103075.84
2023-02-06T22:51:51.499Z,103065.19
2023-02-06T22:54:18.811Z,103068.19
2023-02-06T22:56:46.367Z,103072.09
2023-02-06T22:59:19.614Z,103077.25
2023-02-06T23:01:56.518Z,103078.31
2023-02-06T23:04:29.097Z,103082.22
2023-02-06T23:06:56.180Z,103089.06
2023-02-06T23:09:36.694Z,103091.78
2023-02-06T23:12:06.888Z,103085.75
2023-02-06T23:14:36.848Z,103086.50
2023-02-06T23:17:04.290Z,103091.78
2023-02-06T23:19:37.179Z,103090.06
2023-02-06T23:22:04.028Z,103090.59
2023-02-06T23:24:40.401Z,103095.13
2023-02-06T23:27:07.781Z,103092.59
2023-02-06T23:29:34.496Z,103092.47
2023-02-06T23:32:02.947Z,103089.81
2023-02-06T23:34:45.984Z,103102.72
2023-02-06T23:37:18.130Z,103102.69
2023-02-06T23:39:50.041Z,103117.47
2023-02-06T23:42:19.541Z,103112.41
2023-02-06T23:44:46.422Z,103123.94
2023-02-06T23:47:18.716Z,103120.25
2023-02-06T23:49:45.771Z,103125.50
2023-02-06T23:52:18.862Z,103121.09
2023-02-06T23:54:48.321Z,103117.66
2023-02-06T23:57:22.759Z,103132.50
2023-02-06T23:59:51.568Z,103130.38
